Terminal Aerodrome Forecast
Issued by NWS

Home | Current Version | Previous Version | Text Only | Print | Product List | Glossary On
Versions: 1 2 3 4 5 6 7 8 9 10 11 12
000
FTUS41 KBTV 212320
TAFMSS
TAF
KMSS 212320Z 2200/2224 21005KT P6SM FEW110
     FM221400 19008G18KT P6SM BKN130
     FM221600 20015G25KT P6SM VCTS SCT050CB BKN080
      TEMPO 2217/2221 4SM TSRA BKN025CB
     FM222100 22010G20KT P6SM VCSH BKN045=

USA.gov is the U.S. government's official web portal to all federal, state and local government web resources and services.